Time;durP1;ratioP1;P1;durP2;ratioP2;P2;SDS_P1;SDS_P2;PMS_P1;PMS_P2;Temp;Humidity;BMP_temperature;BMP_pressure;BME280_temperature;BME280_humidity;BME280_pressure;Samples;Min_cycle;Max_cycle;Signal;HPM_P1;HPM_P2
2020/12/09 00:01:47;;;;;;;1.77;1.20;;;23.10;41.40;;;;;;4167076;28;20053;-53
2020/12/09 00:03:49;;;;;;;2.13;1.30;;;23.10;41.40;;;;;;4156825;28;20447;-50
2020/12/09 00:05:51;;;;;;;2.17;1.55;;;23.10;41.40;;;;;;4162771;28;20033;-51
2020/12/09 00:07:53;;;;;;;2.70;1.63;;;23.10;41.40;;;;;;4169257;28;20036;-51
2020/12/09 00:09:55;;;;;;;2.38;1.52;;;23.10;41.30;;;;;;4169588;28;20499;-51
2020/12/09 00:11:57;;;;;;;1.77;1.30;;;23.10;41.30;;;;;;4168290;28;20395;-52
2020/12/09 00:14:00;;;;;;;2.05;1.65;;;23.10;41.40;;;;;;4163628;28;20086;-53
2020/12/09 00:16:02;;;;;;;3.25;1.65;;;23.10;41.40;;;;;;4165591;28;20063;-50
2020/12/09 00:18:04;;;;;;;1.35;1.25;;;23.20;41.30;;;;;;4166903;28;20037;-53
2020/12/09 00:20:06;;;;;;;2.72;1.67;;;23.20;41.40;;;;;;4166641;28;20036;-49
2020/12/09 00:22:09;;;;;;;1.88;1.60;;;23.20;41.30;;;;;;4164048;28;20049;-49
2020/12/09 00:24:11;;;;;;;2.10;1.45;;;23.20;41.40;;;;;;4166525;28;20040;-51
2020/12/09 00:26:17;;;;;;;2.05;1.30;;;23.30;41.40;;;;;;4169550;28;20032;-48
2020/12/09 00:28:19;;;;;;;2.88;1.30;;;23.30;41.40;;;;;;4170680;28;20024;-52
2020/12/09 00:30:22;;;;;;;2.15;1.67;;;23.30;41.40;;;;;;4176922;28;20064;-49
2020/12/09 00:32:24;;;;;;;1.95;1.25;;;23.30;41.40;;;;;;4169257;28;20105;-52
2020/12/09 00:34:26;;;;;;;1.67;1.27;;;23.30;41.40;;;;;;4164479;28;20048;-50
2020/12/09 00:36:29;;;;;;;2.10;1.42;;;23.30;41.30;;;;;;4169172;28;20450;-53
2020/12/09 00:38:31;;;;;;;2.70;1.58;;;23.30;41.40;;;;;;4169571;28;20037;-47
2020/12/09 00:40:34;;;;;;;3.10;1.40;;;23.40;41.50;;;;;;4167712;28;20106;-50
2020/12/09 00:42:37;;;;;;;2.33;1.20;;;23.40;41.50;;;;;;4164499;28;20597;-51
2020/12/09 00:44:39;;;;;;;2.08;1.50;;;23.40;41.50;;;;;;4167544;28;20056;-52
2020/12/09 00:46:41;;;;;;;2.35;1.45;;;23.40;41.50;;;;;;4172747;28;20690;-52
2020/12/09 00:48:43;;;;;;;2.50;1.50;;;23.40;41.50;;;;;;4166455;28;20390;-47
2020/12/09 00:50:45;;;;;;;2.35;1.67;;;23.40;41.50;;;;;;4174347;28;20517;-52
2020/12/09 00:52:47;;;;;;;2.10;1.33;;;23.40;42.10;;;;;;4170876;28;20028;-53
2020/12/09 00:54:50;;;;;;;2.60;1.40;;;23.40;41.40;;;;;;4159700;28;20034;-53
2020/12/09 00:56:52;;;;;;;2.67;1.50;;;23.50;41.50;;;;;;4168483;28;20124;-48
2020/12/09 00:58:54;;;;;;;2.78;1.50;;;23.50;41.40;;;;;;4165597;28;20104;-45
2020/12/09 01:00:56;;;;;;;2.95;1.40;;;23.50;41.40;;;;;;4165461;28;20355;-49
2020/12/09 01:02:59;;;;;;;1.65;1.38;;;23.50;41.40;;;;;;4167880;28;20114;-50
2020/12/09 01:05:01;;;;;;;3.22;1.60;;;23.50;41.50;;;;;;4171027;28;20043;-49
2020/12/09 01:07:07;;;;;;;2.97;1.50;;;23.50;41.40;;;;;;4175821;28;21056;-51
2020/12/09 01:09:09;;;;;;;2.13;1.10;;;23.50;41.40;;;;;;4166352;28;20271;-47
2020/12/09 01:11:11;;;;;;;3.33;1.63;;;23.60;41.50;;;;;;4167126;28;20123;-49
2020/12/09 01:13:15;;;;;;;1.55;1.10;;;23.60;41.50;;;;;;4167139;28;20044;-50
2020/12/09 01:15:18;;;;;;;2.80;1.67;;;23.60;41.50;;;;;;4169050;28;20084;-46
2020/12/09 01:17:20;;;;;;;2.95;1.55;;;23.60;41.50;;;;;;4167197;28;20059;-50
2020/12/09 01:19:23;;;;;;;2.85;1.70;;;23.70;41.50;;;;;;4167453;28;20064;-48
2020/12/09 01:21:32;;;;;;;2.72;1.80;;;23.70;41.50;;;;;;4168730;28;20049;-48
2020/12/09 01:23:34;;;;;;;3.58;1.52;;;23.70;41.50;;;;;;4170152;28;20045;-48
2020/12/09 01:25:36;;;;;;;4.13;2.10;;;23.70;41.50;;;;;;4170832;28;20033;-44
2020/12/09 01:27:38;;;;;;;2.20;1.52;;;23.70;41.50;;;;;;4166156;28;20421;-49
2020/12/09 01:29:40;;;;;;;3.60;1.63;;;23.70;41.50;;;;;;4174719;28;20029;-49
2020/12/09 01:31:43;;;;;;;1.85;1.23;;;23.70;41.40;;;;;;4164936;28;20037;-47
2020/12/09 01:33:45;;;;;;;2.67;1.37;;;23.70;41.40;;;;;;4171701;28;20037;-51
2020/12/09 01:35:47;;;;;;;3.20;1.65;;;23.80;41.40;;;;;;4174360;28;20403;-48
2020/12/09 01:37:54;;;;;;;2.85;1.50;;;23.80;41.50;;;;;;4177219;28;20055;-50
2020/12/09 01:39:57;;;;;;;2.55;1.65;;;23.80;41.30;;;;;;4171477;28;20059;-49
2020/12/09 01:41:59;;;;;;;2.55;1.38;;;23.80;41.30;;;;;;4168040;28;20040;-49
2020/12/09 01:44:01;;;;;;;5.93;2.08;;;23.90;41.40;;;;;;4172693;28;20138;-48
2020/12/09 01:46:03;;;;;;;3.92;1.60;;;23.90;41.30;;;;;;4169023;28;20037;-49
2020/12/09 01:48:10;;;;;;;3.22;1.80;;;23.90;41.30;;;;;;4170230;28;20020;-47
2020/12/09 01:50:14;;;;;;;2.03;1.05;;;23.90;41.30;;;;;;4175294;28;20440;-49
2020/12/09 01:52:18;;;;;;;2.65;1.88;;;23.90;41.30;;;;;;4175398;28;20056;-50
2020/12/09 01:54:20;;;;;;;5.05;1.60;;;24.00;41.30;;;;;;4173637;28;20465;-51
2020/12/09 01:56:23;;;;;;;3.78;1.60;;;24.00;41.30;;;;;;4176768;28;20021;-50
2020/12/09 01:58:25;;;;;;;3.70;1.90;;;24.00;41.30;;;;;;4167573;28;20045;-48
2020/12/09 02:00:27;;;;;;;2.38;1.38;;;24.00;41.30;;;;;;4168366;28;20041;-46
2020/12/09 02:02:30;;;;;;;2.53;1.48;;;24.00;41.30;;;;;;4170169;28;20069;-49
2020/12/09 02:04:32;;;;;;;2.13;1.30;;;24.00;41.20;;;;;;4167913;28;20469;-48
2020/12/09 02:06:34;;;;;;;3.20;1.55;;;24.10;41.30;;;;;;4166956;28;20380;-50
2020/12/09 02:08:36;;;;;;;2.72;1.65;;;24.10;41.30;;;;;;4171696;28;20035;-49
2020/12/09 02:10:39;;;;;;;2.65;1.52;;;24.10;41.30;;;;;;4170019;28;20083;-51
2020/12/09 02:12:41;;;;;;;3.42;1.58;;;24.10;41.30;;;;;;4173220;28;20052;-51
2020/12/09 02:14:43;;;;;;;2.88;1.50;;;24.20;41.40;;;;;;4172104;28;20041;-49
2020/12/09 02:16:53;;;;;;;2.63;1.60;;;24.20;41.40;;;;;;4169803;28;20118;-50
2020/12/09 02:18:55;;;;;;;2.88;1.60;;;24.20;41.40;;;;;;4178280;28;20048;-50
2020/12/09 02:20:57;;;;;;;3.28;1.63;;;24.20;41.40;;;;;;4172324;28;20032;-50
2020/12/09 02:22:59;;;;;;;3.10;1.83;;;24.30;41.40;;;;;;4176013;28;20037;-44
2020/12/09 02:25:01;;;;;;;2.33;1.30;;;24.30;41.40;;;;;;4170998;28;20152;-49
2020/12/09 02:27:04;;;;;;;4.32;1.73;;;24.30;41.40;;;;;;4168587;28;20473;-48
2020/12/09 02:29:06;;;;;;;4.20;1.77;;;24.30;41.40;;;;;;4171631;28;20078;-46
2020/12/09 02:31:08;;;;;;;3.72;1.80;;;24.40;41.30;;;;;;4170323;28;20322;-51
2020/12/09 02:33:10;;;;;;;2.72;1.40;;;24.40;41.40;;;;;;4169803;28;20132;-50
2020/12/09 02:35:12;;;;;;;2.28;1.40;;;24.40;41.50;;;;;;4167331;28;20056;-48
2020/12/09 02:37:14;;;;;;;3.10;1.55;;;24.40;41.50;;;;;;4167630;28;20112;-47
2020/12/09 02:39:16;;;;;;;3.40;1.80;;;24.40;41.50;;;;;;4172954;28;20036;-49
2020/12/09 02:41:19;;;;;;;2.63;1.60;;;24.50;41.50;;;;;;4170442;28;20064;-51
2020/12/09 02:43:21;;;;;;;3.20;1.58;;;24.50;41.50;;;;;;4168032;28;20144;-50
2020/12/09 02:45:23;;;;;;;3.05;1.70;;;24.50;41.50;;;;;;4169315;28;20040;-46
2020/12/09 02:47:25;;;;;;;2.97;1.55;;;24.60;41.50;;;;;;4165361;28;20128;-48
2020/12/09 02:49:27;;;;;;;3.00;1.50;;;24.60;41.50;;;;;;4171002;28;20053;-51
2020/12/09 02:51:29;;;;;;;2.35;1.75;;;24.60;41.40;;;;;;4170574;28;20048;-50
2020/12/09 02:53:31;;;;;;;3.25;1.60;;;24.60;41.40;;;;;;4172201;28;20482;-46
2020/12/09 02:55:34;;;;;;;2.88;1.33;;;24.60;41.40;;;;;;4175362;28;20479;-50
2020/12/09 02:57:36;;;;;;;4.88;1.67;;;24.70;41.40;;;;;;4173240;28;20036;-50
2020/12/09 02:59:38;;;;;;;2.83;1.42;;;24.70;42.10;;;;;;4167637;28;20541;-50
2020/12/09 03:01:40;;;;;;;2.95;1.48;;;24.70;41.30;;;;;;4169546;28;20049;-48
2020/12/09 03:03:46;;;;;;;2.78;1.52;;;24.70;41.40;;;;;;4168392;28;20677;-49
2020/12/09 03:05:48;;;;;;;2.85;1.70;;;24.80;41.40;;;;;;4171305;28;20046;-49
2020/12/09 03:07:50;;;;;;;3.35;1.67;;;24.80;41.50;;;;;;4167178;28;20098;-49
2020/12/09 03:09:53;;;;;;;3.05;1.90;;;24.80;41.50;;;;;;4176314;28;20362;-46
2020/12/09 03:11:55;;;;;;;3.92;1.48;;;24.80;41.30;;;;;;4168677;28;20033;-48
2020/12/09 03:13:58;;;;;;;3.00;1.50;;;24.80;41.40;;;;;;4170701;28;20449;-52
2020/12/09 03:15:59;;;;;;;;;;;24.90;41.40;;;;;;4167459;28;20037;-51
2020/12/09 03:18:01;;;;;;;2.33;1.30;;;24.90;41.50;;;;;;4167607;28;19913;-50
2020/12/09 03:20:03;;;;;;;3.22;1.60;;;24.90;41.50;;;;;;4173277;28;20020;-50
2020/12/09 03:22:05;;;;;;;3.42;1.58;;;24.90;41.40;;;;;;4169143;28;20387;-48
2020/12/09 03:24:09;;;;;;;3.17;1.52;;;25.00;41.40;;;;;;4171258;28;20036;-51
2020/12/09 03:26:11;;;;;;;2.78;1.52;;;25.00;41.30;;;;;;4163269;28;20029;-52
2020/12/09 03:28:13;;;;;;;3.13;1.48;;;25.00;41.50;;;;;;4165878;28;20043;-53
2020/12/09 03:30:15;;;;;;;2.87;1.70;;;25.00;41.50;;;;;;4169909;28;20048;-50
2020/12/09 03:32:17;;;;;;;3.38;1.55;;;25.10;41.50;;;;;;4168659;28;20029;-53
2020/12/09 03:34:19;;;;;;;2.72;1.60;;;25.10;41.50;;;;;;4170159;28;20034;-48
2020/12/09 03:36:22;;;;;;;2.95;1.55;;;25.10;41.40;;;;;;4168240;28;20087;-50
2020/12/09 03:38:24;;;;;;;2.43;1.30;;;25.20;41.60;;;;;;4168525;28;20266;-49
2020/12/09 03:40:26;;;;;;;2.60;1.48;;;25.20;41.60;;;;;;4173061;28;20044;-48
2020/12/09 03:42:28;;;;;;;4.53;1.80;;;25.20;41.50;;;;;;4167174;28;20136;-51
2020/12/09 03:44:30;;;;;;;2.72;1.40;;;25.20;41.40;;;;;;4170588;28;20397;-51
2020/12/09 03:46:32;;;;;;;2.25;1.38;;;25.30;41.40;;;;;;4161520;28;20075;-49
2020/12/09 03:48:34;;;;;;;3.33;1.77;;;25.30;41.30;;;;;;4153173;28;20125;-50
2020/12/09 03:50:37;;;;;;;4.60;1.80;;;25.30;41.40;;;;;;4170685;28;20029;-53
2020/12/09 03:52:39;;;;;;;3.72;1.40;;;25.30;41.50;;;;;;4168666;28;20116;-49
2020/12/09 03:54:41;;;;;;;3.50;1.83;;;25.40;41.60;;;;;;4171629;28;20037;-52
2020/12/09 03:56:43;;;;;;;3.25;1.60;;;25.40;41.60;;;;;;4165121;28;20076;-52
2020/12/09 03:58:45;;;;;;;2.33;1.63;;;25.40;41.50;;;;;;4168812;28;20029;-49
2020/12/09 04:00:47;;;;;;;2.70;1.60;;;25.50;41.50;;;;;;4167282;28;20037;-50
2020/12/09 04:02:49;;;;;;;3.72;1.70;;;25.50;41.50;;;;;;4165967;28;20143;-47
2020/12/09 04:04:51;;;;;;;4.05;1.58;;;25.60;41.50;;;;;;4165322;28;20036;-52
2020/12/09 04:06:53;;;;;;;3.13;1.45;;;25.60;41.50;;;;;;4161604;28;20045;-52
2020/12/09 04:08:55;;;;;;;2.67;1.52;;;25.70;41.60;;;;;;4166217;28;20463;-47
2020/12/09 04:10:59;;;;;;;2.65;1.80;;;25.70;41.60;;;;;;4174822;28;20115;-51
2020/12/09 04:13:01;;;;;;;3.25;1.65;;;25.80;41.70;;;;;;4167389;28;20481;-50
2020/12/09 04:15:03;;;;;;;5.10;2.00;;;25.80;41.60;;;;;;4171495;28;20068;-51
2020/12/09 04:17:06;;;;;;;2.53;1.33;;;25.90;41.60;;;;;;4166841;28;20067;-48
2020/12/09 04:19:08;;;;;;;2.08;1.40;;;25.90;41.50;;;;;;4173859;28;20085;-52
2020/12/09 04:21:10;;;;;;;4.03;1.52;;;26.00;41.50;;;;;;4166636;28;20518;-49
2020/12/09 04:23:12;;;;;;;2.97;1.40;;;26.00;41.50;;;;;;4171931;28;20044;-50
2020/12/09 04:25:14;;;;;;;2.65;1.70;;;26.10;41.40;;;;;;4168159;28;20052;-51
2020/12/09 04:27:16;;;;;;;3.80;1.77;;;26.20;41.50;;;;;;4173317;28;20450;-47
2020/12/09 04:29:18;;;;;;;3.25;1.80;;;26.20;41.40;;;;;;4170335;28;20218;-53
2020/12/09 04:31:20;;;;;;;2.85;1.60;;;26.30;41.30;;;;;;4163567;28;20421;-48
2020/12/09 04:33:28;;;;;;;2.95;1.58;;;26.30;41.20;;;;;;4167739;28;20129;-52
2020/12/09 04:35:30;;;;;;;2.47;1.38;;;26.40;41.30;;;;;;4167006;28;20025;-52
2020/12/09 04:37:32;;;;;;;2.92;1.42;;;26.50;41.20;;;;;;4168134;28;20671;-53
2020/12/09 04:39:34;;;;;;;3.08;1.55;;;26.50;41.20;;;;;;4168496;28;20513;-51
2020/12/09 04:41:36;;;;;;;2.63;1.40;;;26.60;41.10;;;;;;4167983;28;20103;-49
2020/12/09 04:43:39;;;;;;;3.13;1.60;;;26.70;41.10;;;;;;4168511;28;20494;-51
2020/12/09 04:45:41;;;;;;;1.80;1.20;;;26.70;41.00;;;;;;4168741;28;20029;-49
2020/12/09 04:47:49;;;;;;;2.33;1.40;;;26.80;40.90;;;;;;4173569;28;20029;-52
2020/12/09 04:50:05;;;;;;;2.35;1.40;;;26.80;40.80;;;;;;4172278;28;20106;-52
2020/12/09 04:52:17;;;;;;;3.33;1.30;;;26.90;40.80;;;;;;4170969;28;20033;-47
2020/12/09 04:54:24;;;;;;;2.63;1.60;;;27.00;40.70;;;;;;4177306;28;20098;-49
2020/12/09 04:56:36;;;;;;;2.50;1.42;;;27.10;40.70;;;;;;4173604;28;20068;-47
2020/12/09 04:58:43;;;;;;;3.08;1.80;;;27.10;40.60;;;;;;4167817;28;20055;-50
2020/12/09 05:00:48;;;;;;;3.00;1.40;;;27.20;40.60;;;;;;4172168;28;20060;-47
2020/12/09 05:02:54;;;;;;;3.28;1.40;;;27.30;40.60;;;;;;4172542;28;20060;-47
2020/12/09 05:04:57;;;;;;;1.80;1.08;;;27.40;40.50;;;;;;4174161;28;20075;-47
2020/12/09 05:07:01;;;;;;;;;;;27.40;40.40;;;;;;4171150;28;20482;-51
2020/12/09 05:09:04;;;;;;;3.70;1.40;;;27.50;40.50;;;;;;4165969;28;19928;-51
2020/12/09 05:11:07;;;;;;;1.98;1.17;;;27.60;40.30;;;;;;4162091;28;20119;-45
2020/12/09 05:13:11;;;;;;;3.50;1.67;;;27.60;40.20;;;;;;4166446;28;20037;-50
2020/12/09 05:15:18;;;;;;;1.73;1.20;;;27.70;40.30;;;;;;4163648;28;20558;-49
2020/12/09 05:17:22;;;;;;;2.63;1.50;;;27.70;40.20;;;;;;4164971;28;20032;-51
2020/12/09 05:19:24;;;;;;;3.00;1.55;;;27.80;40.10;;;;;;4164718;28;20061;-51
2020/12/09 05:21:30;;;;;;;3.58;1.73;;;27.90;40.00;;;;;;4165517;28;20047;-48
2020/12/09 05:23:35;;;;;;;2.85;1.40;;;28.00;40.00;;;;;;4168469;28;20042;-51
2020/12/09 05:25:38;;;;;;;3.53;1.65;;;28.00;39.90;;;;;;4167624;28;20394;-49
2020/12/09 05:27:40;;;;;;;2.58;1.50;;;28.10;39.90;;;;;;4166918;28;20067;-46
2020/12/09 05:29:50;;;;;;;2.47;1.40;;;28.20;39.90;;;;;;4169756;28;20021;-48
2020/12/09 05:32:00;;;;;;;3.47;1.65;;;28.20;39.80;;;;;;4170078;28;20515;-47
2020/12/09 05:34:03;;;;;;;2.67;1.30;;;28.30;39.70;;;;;;4163148;28;20034;-50
2020/12/09 05:36:05;;;;;;;2.13;1.33;;;28.40;39.60;;;;;;4166049;28;20025;-49
2020/12/09 05:38:10;;;;;;;3.80;1.52;;;28.50;39.80;;;;;;4170252;28;20025;-53
2020/12/09 05:40:12;;;;;;;2.25;1.30;;;28.60;39.60;;;;;;4166754;28;20075;-55
2020/12/09 05:42:17;;;;;;;1.83;1.23;;;28.60;39.60;;;;;;4162429;28;20124;-48
2020/12/09 05:44:22;;;;;;;1.70;1.10;;;28.70;39.50;;;;;;4159449;28;20426;-47
2020/12/09 05:46:24;;;;;;;2.10;1.20;;;28.80;39.50;;;;;;4164989;28;20072;-51
2020/12/09 05:48:26;;;;;;;3.53;1.60;;;28.80;39.50;;;;;;4165642;28;20675;-50
2020/12/09 05:50:46;;;;;;;3.17;1.65;;;28.90;39.40;;;;;;4168971;28;20033;-51
2020/12/09 05:52:48;;;;;;;2.58;1.35;;;29.00;39.40;;;;;;4172053;28;20029;-46
2020/12/09 05:54:52;;;;;;;2.60;1.58;;;29.00;39.30;;;;;;4162806;28;20041;-48
2020/12/09 05:56:56;;;;;;;2.03;1.20;;;29.10;39.30;;;;;;4166465;28;20017;-49
2020/12/09 05:58:58;;;;;;;2.38;1.42;;;29.10;39.30;;;;;;4167520;28;20457;-51
2020/12/09 06:01:18;;;;;;;2.60;1.15;;;29.20;39.30;;;;;;4165757;28;20560;-52
2020/12/09 06:03:20;;;;;;;3.08;1.77;;;29.30;39.20;;;;;;4167452;28;20401;-50
2020/12/09 06:05:22;;;;;;;2.42;1.27;;;29.40;39.20;;;;;;4169514;28;20051;-51
2020/12/09 06:07:32;;;;;;;2.70;1.40;;;29.40;39.10;;;;;;4172412;28;20072;-48
2020/12/09 06:09:37;;;;;;;2.65;1.40;;;29.50;39.80;;;;;;4169905;28;20099;-51
2020/12/09 06:11:39;;;;;;;2.60;1.15;;;29.50;39.00;;;;;;4172064;28;20485;-53
2020/12/09 06:13:42;;;;;;;2.45;1.42;;;29.60;39.10;;;;;;4169941;28;20041;-47
2020/12/09 06:15:44;;;;;;;3.28;1.33;;;29.60;39.00;;;;;;4166581;28;20132;-48
2020/12/09 06:17:47;;;;;;;1.93;1.07;;;29.70;39.00;;;;;;4174618;28;20040;-52
2020/12/09 06:19:50;;;;;;;2.22;1.27;;;29.70;38.90;;;;;;4161160;28;20130;-49
2020/12/09 06:21:57;;;;;;;2.30;1.15;;;29.80;38.90;;;;;;4167629;28;20975;-50
2020/12/09 06:23:59;;;;;;;3.10;1.42;;;29.80;38.90;;;;;;4170516;28;20045;-51
2020/12/09 06:26:03;;;;;;;2.17;1.30;;;29.90;38.90;;;;;;4175870;28;20031;-51
2020/12/09 06:28:25;;;;;;;4.10;1.30;;;29.90;38.80;;;;;;4172462;28;20727;-51
2020/12/09 06:30:29;;;;;;;3.05;1.50;;;30.00;38.90;;;;;;4163317;28;20044;-48
2020/12/09 06:32:48;;;;;;;2.63;1.33;;;30.00;38.80;;;;;;4170487;28;20645;-50
2020/12/09 06:35:10;;;;;;;1.95;1.15;;;30.00;38.80;;;;;;4166972;28;20037;-50
2020/12/09 06:37:13;;;;;;;2.20;1.30;;;30.10;38.80;;;;;;4172651;28;20435;-52
2020/12/09 06:39:18;;;;;;;4.03;1.48;;;30.10;38.70;;;;;;4170849;28;20067;-50
2020/12/09 06:41:20;;;;;;;2.67;1.50;;;30.20;38.80;;;;;;4175404;28;20393;-53
2020/12/09 06:43:22;;;;;;;2.97;1.27;;;30.20;38.80;;;;;;4165041;28;20821;-53
2020/12/09 06:45:41;;;;;;;2.97;1.33;;;30.30;38.80;;;;;;4167580;28;20128;-51
2020/12/09 06:47:43;;;;;;;3.25;1.60;;;30.30;38.80;;;;;;4170032;28;20024;-50
2020/12/09 06:49:46;;;;;;;3.55;1.63;;;30.30;38.70;;;;;;4166132;28;20041;-52
2020/12/09 06:51:48;;;;;;;;;;;30.30;38.70;;;;;;4167895;28;20051;-53
2020/12/09 06:54:14;;;;;;;2.75;1.23;;;30.40;38.80;;;;;;4174600;28;20349;-52
2020/12/09 06:56:19;;;;;;;2.55;1.15;;;30.40;38.80;;;;;;4174472;28;20040;-50
2020/12/09 06:58:23;;;;;;;2.85;1.40;;;30.40;38.70;;;;;;4173054;28;20135;-47
2020/12/09 07:00:25;;;;;;;2.70;1.30;;;30.40;38.80;;;;;;4167186;28;20044;-54
2020/12/09 07:02:31;;;;;;;3.03;1.50;;;30.40;38.80;;;;;;4163844;28;20640;-53
2020/12/09 07:04:54;;;;;;;2.78;1.58;;;30.40;38.80;;;;;;4162472;28;20059;-49
2020/12/09 07:06:56;;;;;;;3.35;1.65;;;30.40;38.80;;;;;;4163697;28;20045;-49
2020/12/09 07:08:58;;;;;;;3.13;1.40;;;30.40;38.90;;;;;;4170288;28;20482;-48
2020/12/09 07:11:00;;;;;;;3.23;1.50;;;30.40;38.90;;;;;;4169278;28;20103;-50
2020/12/09 07:13:04;;;;;;;3.57;1.60;;;30.40;39.00;;;;;;4173740;28;20029;-48
2020/12/09 07:15:06;;;;;;;3.00;1.33;;;30.40;39.00;;;;;;4168217;28;20312;-54
2020/12/09 07:17:12;;;;;;;2.58;1.30;;;30.40;39.10;;;;;;4166113;28;20029;-52
2020/12/09 07:19:15;;;;;;;2.83;1.17;;;30.40;39.10;;;;;;4169032;28;20545;-51
2020/12/09 07:21:17;;;;;;;2.63;1.33;;;30.30;39.10;;;;;;4168238;28;20032;-49
2020/12/09 07:23:19;;;;;;;3.43;1.40;;;30.30;39.20;;;;;;4169336;28;20482;-52
2020/12/09 07:25:21;;;;;;;2.20;1.27;;;30.30;39.20;;;;;;4172699;28;20037;-49
2020/12/09 07:27:26;;;;;;;2.33;1.50;;;30.30;39.30;;;;;;4169424;28;21119;-53
2020/12/09 07:29:28;;;;;;;3.00;1.70;;;30.30;39.30;;;;;;4171753;28;20052;-48
2020/12/09 07:31:31;;;;;;;2.13;1.30;;;30.30;39.40;;;;;;4167590;28;20124;-51
2020/12/09 07:33:33;;;;;;;4.35;1.83;;;30.30;39.40;;;;;;4173639;28;20402;-52
2020/12/09 07:35:35;;;;;;;2.90;1.57;;;30.30;39.50;;;;;;4171297;28;20025;-51
2020/12/09 07:37:41;;;;;;;3.67;1.57;;;30.30;39.50;;;;;;4173143;28;20450;-53
2020/12/09 07:39:43;;;;;;;3.33;1.75;;;30.30;39.60;;;;;;4163407;28;20591;-53
2020/12/09 07:41:45;;;;;;;3.83;1.80;;;30.20;39.60;;;;;;4170580;28;20423;-51
2020/12/09 07:43:50;;;;;;;4.13;1.90;;;30.20;39.70;;;;;;4169681;28;20793;-53
2020/12/09 07:46:00;;;;;;;3.97;1.90;;;30.10;39.60;;;;;;4166574;28;20587;-54
2020/12/09 07:48:05;;;;;;;4.78;2.10;;;30.10;39.70;;;;;;4165018;28;20032;-54
2020/12/09 07:50:08;;;;;;;3.28;2.10;;;30.10;39.70;;;;;;4168797;28;20029;-49
2020/12/09 07:52:24;;;;;;;3.95;2.38;;;30.10;39.70;;;;;;4160084;28;20169;-50
2020/12/09 07:54:27;;;;;;;6.00;2.55;;;30.10;39.80;;;;;;4163636;28;20064;-51
2020/12/09 07:56:29;;;;;;;4.47;2.53;;;30.00;39.80;;;;;;4170841;28;20040;-47
2020/12/09 07:58:31;;;;;;;4.27;2.20;;;30.10;39.90;;;;;;4163724;28;20561;-51
2020/12/09 08:00:41;;;;;;;7.18;2.90;;;30.00;39.90;;;;;;4165313;28;20041;-53
2020/12/09 08:02:46;;;;;;;5.32;2.90;;;30.00;40.00;;;;;;4165326;28;20052;-51
2020/12/09 08:05:08;;;;;;;5.75;3.15;;;30.00;40.10;;;;;;4165073;28;20050;-47
2020/12/09 08:07:21;;;;;;;5.68;2.88;;;29.90;40.10;;;;;;4164182;28;20898;-49
2020/12/09 08:09:23;;;;;;;5.97;3.03;;;29.90;40.20;;;;;;4161271;28;20045;-49
2020/12/09 08:11:34;;;;;;;5.37;2.80;;;29.90;40.30;;;;;;4164612;28;20819;-49
2020/12/09 08:13:36;;;;;;;5.15;2.78;;;29.80;40.20;;;;;;4157942;28;20112;-50
2020/12/09 08:15:41;;;;;;;4.70;2.60;;;29.80;40.10;;;;;;4166743;28;20054;-49
2020/12/09 08:17:47;;;;;;;4.22;2.55;;;29.70;40.20;;;;;;4167364;28;20025;-50
2020/12/09 08:20:02;;;;;;;4.57;2.42;;;29.70;40.10;;;;;;4165060;28;20040;-48
2020/12/09 08:22:06;;;;;;;4.70;2.47;;;29.70;40.20;;;;;;4168469;28;20541;-55
2020/12/09 08:24:12;;;;;;;4.05;2.40;;;29.60;40.10;;;;;;4160867;28;20100;-52
2020/12/09 08:26:33;;;;;;;4.57;2.65;;;29.60;40.20;;;;;;4167310;28;20039;-48
2020/12/09 08:28:35;;;;;;;4.13;2.35;;;29.60;40.30;;;;;;4158511;28;20647;-51
2020/12/09 08:30:37;;;;;;;4.32;2.38;;;29.50;40.30;;;;;;4167342;28;20041;-52
2020/12/09 08:33:07;;;;;;;4.60;2.20;;;29.50;40.30;;;;;;4168565;28;20417;-53
2020/12/09 08:35:10;;;;;;;4.90;2.10;;;29.50;40.40;;;;;;4166139;28;20108;-48
2020/12/09 08:37:16;;;;;;;4.38;2.22;;;29.40;40.30;;;;;;4164459;28;20549;-49
2020/12/09 08:39:18;;;;;;;4.03;2.10;;;29.40;40.40;;;;;;4168922;28;20090;-54
2020/12/09 08:41:32;;;;;;;4.20;2.10;;;29.40;40.50;;;;;;4161306;28;20021;-50
2020/12/09 08:43:34;;;;;;;;;;;29.30;40.50;;;;;;4166902;28;20045;-53
2020/12/09 08:45:36;;;;;;;3.83;1.90;;;29.30;40.50;;;;;;4161911;28;20254;-48
2020/12/09 08:47:39;;;;;;;3.42;1.80;;;29.30;40.60;;;;;;4171726;28;20316;-50
2020/12/09 08:49:41;;;;;;;4.07;2.00;;;29.30;40.60;;;;;;4167240;28;20405;-50
2020/12/09 08:51:43;;;;;;;2.45;1.48;;;29.20;40.60;;;;;;4164421;28;20304;-51
2020/12/09 08:53:45;;;;;;;3.22;1.50;;;29.20;40.60;;;;;;4166123;28;20155;-52
2020/12/09 08:55:49;;;;;;;2.35;1.42;;;29.20;40.70;;;;;;4164618;28;20567;-52
2020/12/09 08:57:51;;;;;;;2.63;1.50;;;29.20;40.80;;;;;;4170713;28;20594;-54
2020/12/09 08:59:53;;;;;;;2.50;1.50;;;29.10;40.70;;;;;;4162018;28;20083;-52
2020/12/09 09:01:55;;;;;;;3.20;1.27;;;29.10;40.80;;;;;;4156471;28;20506;-52
2020/12/09 09:03:58;;;;;;;2.92;1.67;;;29.10;41.50;;;;;;4160884;28;20375;-48
2020/12/09 09:06:00;;;;;;;2.67;1.60;;;29.10;40.90;;;;;;4158403;28;20052;-49
2020/12/09 09:08:02;;;;;;;4.38;1.90;;;29.10;41.00;;;;;;4173249;28;20515;-49
2020/12/09 09:10:04;;;;;;;3.13;1.58;;;29.00;41.00;;;;;;4152410;28;20068;-50
2020/12/09 09:12:06;;;;;;;3.30;1.63;;;29.00;41.10;;;;;;4163749;28;20021;-49
2020/12/09 09:14:08;;;;;;;3.45;1.65;;;29.00;41.10;;;;;;4164224;28;20361;-52
2020/12/09 09:16:10;;;;;;;3.78;1.70;;;29.00;41.20;;;;;;4164273;28;20033;-52
2020/12/09 09:18:13;;;;;;;3.08;1.77;;;29.00;41.30;;;;;;4163098;28;20121;-51
2020/12/09 09:20:15;;;;;;;3.40;1.80;;;28.90;41.30;;;;;;4166366;28;20029;-48
2020/12/09 09:22:17;;;;;;;3.60;1.97;;;28.90;41.30;;;;;;4160692;28;21923;-51
2020/12/09 09:24:19;;;;;;;4.00;2.10;;;28.90;41.30;;;;;;4162313;28;20134;-51
2020/12/09 09:26:21;;;;;;;3.60;1.90;;;28.90;41.40;;;;;;4165708;28;20025;-46
2020/12/09 09:28:23;;;;;;;2.97;1.42;;;28.90;41.40;;;;;;4167095;28;20679;-49
2020/12/09 09:30:25;;;;;;;4.13;2.03;;;28.80;41.50;;;;;;4168081;28;20056;-50
2020/12/09 09:32:28;;;;;;;3.17;1.60;;;28.80;41.40;;;;;;4163165;28;20035;-48
2020/12/09 09:34:31;;;;;;;3.43;1.60;;;28.80;41.50;;;;;;4166913;28;20051;-49
2020/12/09 09:36:33;;;;;;;1.90;1.20;;;28.80;41.50;;;;;;4164893;28;20277;-53
2020/12/09 09:38:35;;;;;;;2.63;1.65;;;28.80;41.60;;;;;;4161989;28;20032;-51
2020/12/09 09:40:37;;;;;;;3.20;1.90;;;28.80;42.30;;;;;;4146223;28;20124;-50
2020/12/09 09:42:40;;;;;;;4.13;2.00;;;28.70;41.60;;;;;;4162621;28;20036;-52
2020/12/09 09:44:42;;;;;;;;;;;28.70;41.70;;;;;;4161358;28;20390;-50
2020/12/09 09:46:46;;;;;;;3.30;1.58;;;28.70;41.80;;;;;;4172274;28;19924;-51
2020/12/09 09:48:48;;;;;;;3.08;1.92;;;28.70;41.70;;;;;;4167864;28;20048;-50
2020/12/09 09:50:50;;;;;;;2.67;1.45;;;28.70;41.80;;;;;;4170910;28;20320;-47
2020/12/09 09:52:52;;;;;;;3.27;1.53;;;28.60;41.80;;;;;;4175250;28;20043;-52
2020/12/09 09:54:54;;;;;;;4.15;1.88;;;28.60;41.80;;;;;;4172241;28;20037;-52
2020/12/09 09:56:57;;;;;;;2.15;1.50;;;28.60;41.80;;;;;;4169273;28;20132;-49
2020/12/09 09:58:59;;;;;;;3.47;2.00;;;28.60;41.90;;;;;;4173759;28;20116;-53
2020/12/09 10:01:01;;;;;;;3.27;1.63;;;28.50;41.80;;;;;;4173552;28;20032;-52
2020/12/09 10:03:04;;;;;;;3.90;1.60;;;28.60;42.60;;;;;;4170745;28;20124;-54
2020/12/09 10:05:06;;;;;;;4.82;2.00;;;28.50;41.90;;;;;;4164282;28;20025;-52
2020/12/09 10:07:09;;;;;;;4.03;1.83;;;28.50;41.90;;;;;;4166944;28;20076;-54
2020/12/09 10:09:11;;;;;;;3.45;1.90;;;28.50;42.00;;;;;;4168685;28;20045;-50
2020/12/09 10:11:15;;;;;;;4.22;2.05;;;28.40;42.00;;;;;;4166111;28;20619;-54
2020/12/09 10:13:17;;;;;;;3.50;1.60;;;28.50;42.10;;;;;;4163054;28;20142;-52
2020/12/09 10:15:19;;;;;;;3.40;1.52;;;28.40;42.10;;;;;;4165047;28;20424;-53
2020/12/09 10:17:22;;;;;;;3.30;1.85;;;28.40;42.10;;;;;;4164141;28;20039;-52
2020/12/09 10:19:24;;;;;;;2.92;1.90;;;28.40;42.00;;;;;;4163713;28;20549;-54
2020/12/09 10:21:27;;;;;;;4.25;1.80;;;28.40;42.20;;;;;;4163630;28;20521;-53
2020/12/09 10:23:29;;;;;;;4.28;1.85;;;28.30;42.10;;;;;;4165557;28;20054;-54
2020/12/09 10:25:31;;;;;;;3.45;1.80;;;28.30;42.20;;;;;;4169314;28;20072;-51
2020/12/09 10:27:34;;;;;;;6.03;2.10;;;28.40;42.30;;;;;;4166289;28;20055;-53
2020/12/09 10:29:36;;;;;;;3.23;2.20;;;28.30;42.50;;;;;;4166995;28;20035;-51
2020/12/09 10:31:45;;;;;;;3.93;1.70;;;28.30;42.70;;;;;;4168713;28;20516;-54
2020/12/09 10:33:47;;;;;;;3.35;1.73;;;28.30;42.30;;;;;;4160022;28;20458;-54
2020/12/09 10:35:49;;;;;;;3.65;1.70;;;28.30;42.30;;;;;;4163175;28;20120;-55
2020/12/09 10:37:52;;;;;;;4.13;1.90;;;28.30;42.30;;;;;;4168342;28;20033;-50
2020/12/09 10:39:55;;;;;;;3.10;1.73;;;28.20;42.30;;;;;;4166655;28;20379;-53
2020/12/09 10:41:57;;;;;;;3.88;1.90;;;28.20;42.40;;;;;;4161330;28;20379;-55
2020/12/09 10:44:00;;;;;;;4.35;1.90;;;28.20;42.40;;;;;;4166905;28;20047;-55
2020/12/09 10:46:02;;;;;;;3.90;1.98;;;28.20;42.40;;;;;;4168160;28;20114;-52